sensor_id;sensor_type;location;lat;lon;timestamp;temperature;humidity
13049;DHT22;6591;51.446;5.404;2023-03-01T00:01:40;1.20;91.20
13049;DHT22;6591;51.446;5.404;2023-03-01T00:04:07;2.80;91.40
13049;DHT22;6591;51.446;5.404;2023-03-01T00:06:34;1.10;91.20
13049;DHT22;6591;51.446;5.404;2023-03-01T00:09:01;1.10;91.10
13049;DHT22;6591;51.446;5.404;2023-03-01T00:11:30;1.10;91.30
13049;DHT22;6591;51.446;5.404;2023-03-01T00:14:00;1.10;91.40
13049;DHT22;6591;51.446;5.404;2023-03-01T00:16:31;1.10;91.70
13049;DHT22;6591;51.446;5.404;2023-03-01T00:19:02;1.10;91.60
13049;DHT22;6591;51.446;5.404;2023-03-01T00:21:29;2.70;92.30
13049;DHT22;6591;51.446;5.404;2023-03-01T00:23:58;1.10;91.60
13049;DHT22;6591;51.446;5.404;2023-03-01T00:26:28;1.10;91.70
13049;DHT22;6591;51.446;5.404;2023-03-01T00:28:57;1.00;91.20
13049;DHT22;6591;51.446;5.404;2023-03-01T00:31:28;1.00;91.70
13049;DHT22;6591;51.446;5.404;2023-03-01T00:34:02;1.30;92.20
13049;DHT22;6591;51.446;5.404;2023-03-01T00:36:34;1.00;92.00
13049;DHT22;6591;51.446;5.404;2023-03-01T00:39:05;4.00;93.20
13049;DHT22;6591;51.446;5.404;2023-03-01T00:41:37;2.40;92.70
13049;DHT22;6591;51.446;5.404;2023-03-01T00:44:04;1.00;92.30
13049;DHT22;6591;51.446;5.404;2023-03-01T00:46:32;1.00;92.50
13049;DHT22;6591;51.446;5.404;2023-03-01T00:49:01;3.10;93.40
13049;DHT22;6591;51.446;5.404;2023-03-01T00:51:29;1.00;92.40
13049;DHT22;6591;51.446;5.404;2023-03-01T00:53:59;1.10;92.30
13049;DHT22;6591;51.446;5.404;2023-03-01T00:56:28;1.10;92.30
13049;DHT22;6591;51.446;5.404;2023-03-01T00:58:56;1.00;92.20
13049;DHT22;6591;51.446;5.404;2023-03-01T01:01:26;1.00;92.10
13049;DHT22;6591;51.446;5.404;2023-03-01T01:04:01;1.00;92.40
13049;DHT22;6591;51.446;5.404;2023-03-01T01:06:37;1.00;92.30
13049;DHT22;6591;51.446;5.404;2023-03-01T01:09:07;0.90;92.30
13049;DHT22;6591;51.446;5.404;2023-03-01T01:11:34;0.90;92.20
13049;DHT22;6591;51.446;5.404;2023-03-01T01:14:03;0.90;92.30
13049;DHT22;6591;51.446;5.404;2023-03-01T01:16:30;0.80;92.50
13049;DHT22;6591;51.446;5.404;2023-03-01T01:18:57;0.80;92.60
13049;DHT22;6591;51.446;5.404;2023-03-01T01:21:25;0.70;92.50
13049;DHT22;6591;51.446;5.404;2023-03-01T01:23:54;2.30;92.90
13049;DHT22;6591;51.446;5.404;2023-03-01T01:26:27;0.70;92.60
13049;DHT22;6591;51.446;5.404;2023-03-01T01:28:56;0.70;92.80
13049;DHT22;6591;51.446;5.404;2023-03-01T01:31:25;0.60;92.70
13049;DHT22;6591;51.446;5.404;2023-03-01T01:33:53;0.50;92.70
13049;DHT22;6591;51.446;5.404;2023-03-01T01:36:21;0.80;92.60
13049;DHT22;6591;51.446;5.404;2023-03-01T01:38:49;-1.70;91.80
13049;DHT22;6591;51.446;5.404;2023-03-01T01:41:16;0.40;92.60
13049;DHT22;6591;51.446;5.404;2023-03-01T01:43:49;0.40;93.00
13049;DHT22;6591;51.446;5.404;2023-03-01T01:49:16;0.40;93.40
13049;DHT22;6591;51.446;5.404;2023-03-01T01:51:58;2.10;93.80
13049;DHT22;6591;51.446;5.404;2023-03-01T01:54:47;0.30;93.30
13049;DHT22;6591;51.446;5.404;2023-03-01T01:57:25;0.30;93.40
13049;DHT22;6591;51.446;5.404;2023-03-01T01:59:59;1.30;93.90
13049;DHT22;6591;51.446;5.404;2023-03-01T02:02:39;0.30;93.50
13049;DHT22;6591;51.446;5.404;2023-03-01T02:05:17;0.20;93.80
13049;DHT22;6591;51.446;5.404;2023-03-01T02:07:51;0.20;94.10
13049;DHT22;6591;51.446;5.404;2023-03-01T02:10:21;0.20;94.00
13049;DHT22;6591;51.446;5.404;2023-03-01T02:12:51;0.20;94.10
13049;DHT22;6591;51.446;5.404;2023-03-01T02:15:20;0.20;94.10
13049;DHT22;6591;51.446;5.404;2023-03-01T02:17:47;0.20;93.80
13049;DHT22;6591;51.446;5.404;2023-03-01T02:20:30;0.20;93.80
13049;DHT22;6591;51.446;5.404;2023-03-01T02:23:04;0.20;94.10
13049;DHT22;6591;51.446;5.404;2023-03-01T02:26:01;0.10;94.00
13049;DHT22;6591;51.446;5.404;2023-03-01T02:28:38;0.10;94.30
13049;DHT22;6591;51.446;5.404;2023-03-01T02:31:11;0.10;94.40
13049;DHT22;6591;51.446;5.404;2023-03-01T02:34:05;0.00;94.60
13049;DHT22;6591;51.446;5.404;2023-03-01T02:36:46;0.00;94.90
13049;DHT22;6591;51.446;5.404;2023-03-01T02:39:20;0.00;94.70
13049;DHT22;6591;51.446;5.404;2023-03-01T02:41:52;0.00;94.40
13049;DHT22;6591;51.446;5.404;2023-03-01T02:44:22;0.00;94.60
13049;DHT22;6591;51.446;5.404;2023-03-01T02:46:52;0.00;95.10
13049;DHT22;6591;51.446;5.404;2023-03-01T02:49:29;0.00;95.30
13049;DHT22;6591;51.446;5.404;2023-03-01T02:55:17;0.00;95.70
13049;DHT22;6591;51.446;5.404;2023-03-01T02:57:46;0.00;95.30
13049;DHT22;6591;51.446;5.404;2023-03-01T03:00:21;0.00;95.50
13049;DHT22;6591;51.446;5.404;2023-03-01T03:02:53;0.00;95.50
13049;DHT22;6591;51.446;5.404;2023-03-01T03:05:25;2.00;96.40
13049;DHT22;6591;51.446;5.404;2023-03-01T03:07:59;0.00;95.70
13049;DHT22;6591;51.446;5.404;2023-03-01T03:10:35;0.00;95.70
13049;DHT22;6591;51.446;5.404;2023-03-01T03:13:07;0.00;95.50
13049;DHT22;6591;51.446;5.404;2023-03-01T03:15:41;0.10;95.60
13049;DHT22;6591;51.446;5.404;2023-03-01T03:18:14;0.10;95.70
13049;DHT22;6591;51.446;5.404;2023-03-01T03:20:43;0.10;96.00
13049;DHT22;6591;51.446;5.404;2023-03-01T03:23:12;0.00;95.90
13049;DHT22;6591;51.446;5.404;2023-03-01T03:25:40;0.00;96.10
13049;DHT22;6591;51.446;5.404;2023-03-01T03:28:07;0.10;95.90
13049;DHT22;6591;51.446;5.404;2023-03-01T03:30:39;-2.10;95.70
13049;DHT22;6591;51.446;5.404;2023-03-01T03:33:09;0.10;96.00
13049;DHT22;6591;51.446;5.404;2023-03-01T03:35:46;0.10;96.20
13049;DHT22;6591;51.446;5.404;2023-03-01T03:38:17;0.10;96.50
13049;DHT22;6591;51.446;5.404;2023-03-01T03:40:49;0.10;96.50
13049;DHT22;6591;51.446;5.404;2023-03-01T03:43:21;0.10;96.50
13049;DHT22;6591;51.446;5.404;2023-03-01T03:45:50;0.10;96.20
13049;DHT22;6591;51.446;5.404;2023-03-01T03:48:18;0.10;96.20
13049;DHT22;6591;51.446;5.404;2023-03-01T03:50:54;0.10;96.30
13049;DHT22;6591;51.446;5.404;2023-03-01T03:53:26;0.10;96.50
13049;DHT22;6591;51.446;5.404;2023-03-01T03:55:54;0.60;96.70
13049;DHT22;6591;51.446;5.404;2023-03-01T03:58:23;0.10;96.40
13049;DHT22;6591;51.446;5.404;2023-03-01T04:00:56;0.00;96.30
13049;DHT22;6591;51.446;5.404;2023-03-01T04:03:25;0.10;96.50
13049;DHT22;6591;51.446;5.404;2023-03-01T04:05:53;0.00;96.70
13049;DHT22;6591;51.446;5.404;2023-03-01T04:08:22;0.00;96.30
13049;DHT22;6591;51.446;5.404;2023-03-01T04:10:52;0.00;96.40
13049;DHT22;6591;51.446;5.404;2023-03-01T04:13:23;0.00;96.70
13049;DHT22;6591;51.446;5.404;2023-03-01T04:15:53;0.00;96.90
13049;DHT22;6591;51.446;5.404;2023-03-01T04:18:22;0.00;96.50
13049;DHT22;6591;51.446;5.404;2023-03-01T04:20:53;0.00;96.40
13049;DHT22;6591;51.446;5.404;2023-03-01T04:23:22;0.00;96.50
13049;DHT22;6591;51.446;5.404;2023-03-01T04:25:53;0.70;96.50
13049;DHT22;6591;51.446;5.404;2023-03-01T04:28:22;-0.10;96.60
13049;DHT22;6591;51.446;5.404;2023-03-01T04:30:55;-0.10;96.70
13049;DHT22;6591;51.446;5.404;2023-03-01T04:33:25;-0.20;96.90
13049;DHT22;6591;51.446;5.404;2023-03-01T04:35:52;-0.20;97.00
13049;DHT22;6591;51.446;5.404;2023-03-01T04:38:20;-0.20;96.90
13049;DHT22;6591;51.446;5.404;2023-03-01T04:40:48;-0.20;96.70
13049;DHT22;6591;51.446;5.404;2023-03-01T04:43:15;-0.20;96.80
13049;DHT22;6591;51.446;5.404;2023-03-01T04:45:42;-0.20;97.00
13049;DHT22;6591;51.446;5.404;2023-03-01T04:48:09;-0.30;97.20
13049;DHT22;6591;51.446;5.404;2023-03-01T04:50:36;-0.30;97.20
13049;DHT22;6591;51.446;5.404;2023-03-01T04:53:03;-0.30;97.30
13049;DHT22;6591;51.446;5.404;2023-03-01T04:55:30;-0.30;97.50
13049;DHT22;6591;51.446;5.404;2023-03-01T04:57:59;-0.30;97.50
13049;DHT22;6591;51.446;5.404;2023-03-01T05:00:26;-0.30;97.60
13049;DHT22;6591;51.446;5.404;2023-03-01T05:02:56;-0.30;97.90
13049;DHT22;6591;51.446;5.404;2023-03-01T05:05:38;-0.30;97.80
13049;DHT22;6591;51.446;5.404;2023-03-01T05:08:07;-0.30;97.80
13049;DHT22;6591;51.446;5.404;2023-03-01T05:10:36;-0.30;97.50
13049;DHT22;6591;51.446;5.404;2023-03-01T05:13:03;-0.30;97.60
13049;DHT22;6591;51.446;5.404;2023-03-01T05:15:31;-0.30;97.50
13049;DHT22;6591;51.446;5.404;2023-03-01T05:17:59;-0.30;97.60
13049;DHT22;6591;51.446;5.404;2023-03-01T05:20:28;-0.30;97.70
13049;DHT22;6591;51.446;5.404;2023-03-01T05:22:59;-0.30;97.70
13049;DHT22;6591;51.446;5.404;2023-03-01T05:25:26;0.70;98.00
13049;DHT22;6591;51.446;5.404;2023-03-01T05:27:54;-0.40;97.80
13049;DHT22;6591;51.446;5.404;2023-03-01T05:30:21;-0.40;97.90
13049;DHT22;6591;51.446;5.404;2023-03-01T05:32:49;-0.40;98.10
13049;DHT22;6591;51.446;5.404;2023-03-01T05:35:24;-0.40;98.10
13049;DHT22;6591;51.446;5.404;2023-03-01T05:37:51;-0.40;97.90
13049;DHT22;6591;51.446;5.404;2023-03-01T05:40:21;-0.40;97.60
13049;DHT22;6591;51.446;5.404;2023-03-01T05:42:56;-0.40;97.50
13049;DHT22;6591;51.446;5.404;2023-03-01T05:45:25;-0.40;97.70
13049;DHT22;6591;51.446;5.404;2023-03-01T05:47:54;-0.40;97.80
13049;DHT22;6591;51.446;5.404;2023-03-01T05:50:27;-0.40;97.70
13049;DHT22;6591;51.446;5.404;2023-03-01T05:53:01;-0.40;97.60
13049;DHT22;6591;51.446;5.404;2023-03-01T05:55:32;0.20;97.80
13049;DHT22;6591;51.446;5.404;2023-03-01T05:58:04;-0.50;97.50
13049;DHT22;6591;51.446;5.404;2023-03-01T06:00:36;-0.50;97.50
13049;DHT22;6591;51.446;5.404;2023-03-01T06:03:03;-0.50;97.30
13049;DHT22;6591;51.446;5.404;2023-03-01T06:05:31;-0.50;97.30
13049;DHT22;6591;51.446;5.404;2023-03-01T06:08:02;-0.60;97.10
13049;DHT22;6591;51.446;5.404;2023-03-01T06:10:30;-0.60;97.40
13049;DHT22;6591;51.446;5.404;2023-03-01T06:12:57;-0.60;97.50
13049;DHT22;6591;51.446;5.404;2023-03-01T06:15:25;-0.70;97.50
13049;DHT22;6591;51.446;5.404;2023-03-01T06:17:54;0.80;98.50
13049;DHT22;6591;51.446;5.404;2023-03-01T06:20:27;-0.70;98.10
13049;DHT22;6591;51.446;5.404;2023-03-01T06:22:55;-0.70;98.00
13049;DHT22;6591;51.446;5.404;2023-03-01T06:25:25;-0.70;98.00
13049;DHT22;6591;51.446;5.404;2023-03-01T06:27:53;0.80;98.40
13049;DHT22;6591;51.446;5.404;2023-03-01T06:30:22;-0.70;97.90
13049;DHT22;6591;51.446;5.404;2023-03-01T06:32:51;-0.70;97.90
13049;DHT22;6591;51.446;5.404;2023-03-01T06:35:19;-0.70;98.10
13049;DHT22;6591;51.446;5.404;2023-03-01T06:37:47;-0.70;98.40
13049;DHT22;6591;51.446;5.404;2023-03-01T06:40:15;-0.70;98.50
13049;DHT22;6591;51.446;5.404;2023-03-01T06:42:47;-0.70;98.50
13049;DHT22;6591;51.446;5.404;2023-03-01T06:45:19;-0.70;98.50
13049;DHT22;6591;51.446;5.404;2023-03-01T06:47:48;-0.70;98.60
13049;DHT22;6591;51.446;5.404;2023-03-01T06:50:16;-0.60;98.60
13049;DHT22;6591;51.446;5.404;2023-03-01T06:52:46;-0.60;98.80
13049;DHT22;6591;51.446;5.404;2023-03-01T06:55:12;0.70;99.10
13049;DHT22;6591;51.446;5.404;2023-03-01T06:57:39;-0.60;98.70
13049;DHT22;6591;51.446;5.404;2023-03-01T07:00:07;-0.50;98.70
13049;DHT22;6591;51.446;5.404;2023-03-01T07:02:36;-0.50;98.80
13049;DHT22;6591;51.446;5.404;2023-03-01T07:05:03;-0.50;98.90
13049;DHT22;6591;51.446;5.404;2023-03-01T07:07:30;-0.40;98.80
13049;DHT22;6591;51.446;5.404;2023-03-01T07:09:57;-0.40;98.80
13049;DHT22;6591;51.446;5.404;2023-03-01T07:12:25;-0.40;98.90
13049;DHT22;6591;51.446;5.404;2023-03-01T07:14:52;-0.30;99.20
13049;DHT22;6591;51.446;5.404;2023-03-01T07:17:19;-0.30;99.20
13049;DHT22;6591;51.446;5.404;2023-03-01T07:19:46;-0.20;99.20
13049;DHT22;6591;51.446;5.404;2023-03-01T07:22:13;-0.20;98.90
13049;DHT22;6591;51.446;5.404;2023-03-01T07:24:41;-0.10;98.70
13049;DHT22;6591;51.446;5.404;2023-03-01T07:27:09;-0.10;98.60
13049;DHT22;6591;51.446;5.404;2023-03-01T07:29:36;2.30;99.20
13049;DHT22;6591;51.446;5.404;2023-03-01T07:32:04;0.00;98.50
13049;DHT22;6591;51.446;5.404;2023-03-01T07:34:34;0.00;98.70
13049;DHT22;6591;51.446;5.404;2023-03-01T07:37:03;0.10;98.80
13049;DHT22;6591;51.446;5.404;2023-03-01T07:39:30;0.20;98.70
13049;DHT22;6591;51.446;5.404;2023-03-01T07:41:57;0.20;98.50
13049;DHT22;6591;51.446;5.404;2023-03-01T07:44:25;0.30;98.60
13049;DHT22;6591;51.446;5.404;2023-03-01T07:46:52;0.30;98.70
13049;DHT22;6591;51.446;5.404;2023-03-01T07:49:22;0.30;98.70
13049;DHT22;6591;51.446;5.404;2023-03-01T07:51:49;0.40;98.50
13049;DHT22;6591;51.446;5.404;2023-03-01T07:54:17;0.50;98.40
13049;DHT22;6591;51.446;5.404;2023-03-01T07:56:45;0.70;98.70
13049;DHT22;6591;51.446;5.404;2023-03-01T07:59:12;0.70;98.70
13049;DHT22;6591;51.446;5.404;2023-03-01T08:01:40;0.90;98.70
13049;DHT22;6591;51.446;5.404;2023-03-01T08:04:08;1.00;99.00
13049;DHT22;6591;51.446;5.404;2023-03-01T08:06:35;1.20;98.70
13049;DHT22;6591;51.446;5.404;2023-03-01T08:09:02;1.40;98.40
13049;DHT22;6591;51.446;5.404;2023-03-01T08:11:30;1.50;98.40
13049;DHT22;6591;51.446;5.404;2023-03-01T08:13:57;1.70;98.10
13049;DHT22;6591;51.446;5.404;2023-03-01T08:16:25;4.00;98.70
13049;DHT22;6591;51.446;5.404;2023-03-01T08:18:52;2.80;98.10
13049;DHT22;6591;51.446;5.404;2023-03-01T08:21:19;3.50;98.10
13049;DHT22;6591;51.446;5.404;2023-03-01T08:23:46;2.40;97.50
13049;DHT22;6591;51.446;5.404;2023-03-01T08:26:21;2.50;97.50
13049;DHT22;6591;51.446;5.404;2023-03-01T08:28:48;2.70;97.30
13049;DHT22;6591;51.446;5.404;2023-03-01T08:31:25;2.90;97.00
13049;DHT22;6591;51.446;5.404;2023-03-01T08:34:06;3.10;97.00
13049;DHT22;6591;51.446;5.404;2023-03-01T08:36:41;3.20;96.90
13049;DHT22;6591;51.446;5.404;2023-03-01T08:39:12;3.40;96.80
13049;DHT22;6591;51.446;5.404;2023-03-01T08:41:43;3.60;96.70
13049;DHT22;6591;51.446;5.404;2023-03-01T08:44:15;3.80;96.60
13049;DHT22;6591;51.446;5.404;2023-03-01T08:46:43;3.90;96.20
13049;DHT22;6591;51.446;5.404;2023-03-01T08:49:17;4.20;96.20
13049;DHT22;6591;51.446;5.404;2023-03-01T08:51:46;5.80;96.30
13049;DHT22;6591;51.446;5.404;2023-03-01T08:54:16;4.40;95.80
13049;DHT22;6591;51.446;5.404;2023-03-01T08:56:46;4.50;95.70
13049;DHT22;6591;51.446;5.404;2023-03-01T08:59:17;4.40;95.40
13049;DHT22;6591;51.446;5.404;2023-03-01T09:01:45;4.80;95.30
13049;DHT22;6591;51.446;5.404;2023-03-01T09:04:14;4.90;95.10
13049;DHT22;6591;51.446;5.404;2023-03-01T09:06:42;5.10;95.20
13049;DHT22;6591;51.446;5.404;2023-03-01T09:09:16;5.20;94.30
13049;DHT22;6591;51.446;5.404;2023-03-01T09:11:45;5.30;94.30
13049;DHT22;6591;51.446;5.404;2023-03-01T09:14:13;5.40;94.20
13049;DHT22;6591;51.446;5.404;2023-03-01T09:16:41;5.60;94.20
13049;DHT22;6591;51.446;5.404;2023-03-01T09:19:09;5.70;93.60
13049;DHT22;6591;51.446;5.404;2023-03-01T09:21:37;5.70;93.50
13049;DHT22;6591;51.446;5.404;2023-03-01T09:24:14;5.90;92.80
13049;DHT22;6591;51.446;5.404;2023-03-01T09:26:42;6.00;92.50
13049;DHT22;6591;51.446;5.404;2023-03-01T09:29:15;6.10;93.10
13049;DHT22;6591;51.446;5.404;2023-03-01T09:31:43;7.80;93.90
13049;DHT22;6591;51.446;5.404;2023-03-01T09:34:10;6.30;91.70
13049;DHT22;6591;51.446;5.404;2023-03-01T09:36:37;6.30;91.40
13049;DHT22;6591;51.446;5.404;2023-03-01T09:39:05;6.30;91.80
13049;DHT22;6591;51.446;5.404;2023-03-01T09:42:00;7.80;91.80
13049;DHT22;6591;51.446;5.404;2023-03-01T09:44:44;6.50;91.00
13049;DHT22;6591;51.446;5.404;2023-03-01T09:47:18;6.50;90.80
13049;DHT22;6591;51.446;5.404;2023-03-01T09:50:16;6.60;91.10
13049;DHT22;6591;51.446;5.404;2023-03-01T09:58:47;6.80;90.10
13049;DHT22;6591;51.446;5.404;2023-03-01T10:01:55;6.90;90.10
13049;DHT22;6591;51.446;5.404;2023-03-01T10:10:40;7.20;87.60
13049;DHT22;6591;51.446;5.404;2023-03-01T10:16:48;7.30;85.70
13049;DHT22;6591;51.446;5.404;2023-03-01T10:19:24;7.40;84.90
13049;DHT22;6591;51.446;5.404;2023-03-01T10:22:16;7.40;84.60
13049;DHT22;6591;51.446;5.404;2023-03-01T10:24:52;7.40;85.50
13049;DHT22;6591;51.446;5.404;2023-03-01T10:27:26;7.50;86.80
13049;DHT22;6591;51.446;5.404;2023-03-01T10:33:32;7.50;83.40
13049;DHT22;6591;51.446;5.404;2023-03-01T10:36:03;7.60;84.10
13049;DHT22;6591;51.446;5.404;2023-03-01T10:38:33;7.60;85.80
13049;DHT22;6591;51.446;5.404;2023-03-01T10:41:23;7.70;85.20
13049;DHT22;6591;51.446;5.404;2023-03-01T10:43:58;7.80;85.40
13049;DHT22;6591;51.446;5.404;2023-03-01T10:46:31;7.90;82.80
13049;DHT22;6591;51.446;5.404;2023-03-01T10:49:21;7.90;83.80
13049;DHT22;6591;51.446;5.404;2023-03-01T10:51:52;8.00;82.80
13049;DHT22;6591;51.446;5.404;2023-03-01T10:54:31;8.30;83.40
13049;DHT22;6591;51.446;5.404;2023-03-01T10:57:01;9.80;84.10
13049;DHT22;6591;51.446;5.404;2023-03-01T10:59:35;8.20;84.30
13049;DHT22;6591;51.446;5.404;2023-03-01T11:02:18;8.30;81.60
13049;DHT22;6591;51.446;5.404;2023-03-01T11:07:56;8.50;79.70
13049;DHT22;6591;51.446;5.404;2023-03-01T11:10:29;8.60;81.70
13049;DHT22;6591;51.446;5.404;2023-03-01T11:13:28;8.70;82.50
13049;DHT22;6591;51.446;5.404;2023-03-01T11:16:00;8.80;80.30
13049;DHT22;6591;51.446;5.404;2023-03-01T11:18:31;8.90;82.60
13049;DHT22;6591;51.446;5.404;2023-03-01T11:21:15;9.50;84.10
13049;DHT22;6591;51.446;5.404;2023-03-01T11:23:45;10.60;83.30
13049;DHT22;6591;51.446;5.404;2023-03-01T11:26:15;9.40;81.70
13049;DHT22;6591;51.446;5.404;2023-03-01T11:28:46;9.50;78.20
13049;DHT22;6591;51.446;5.404;2023-03-01T11:31:19;9.50;79.10
13049;DHT22;6591;51.446;5.404;2023-03-01T11:36:30;9.60;80.60
13049;DHT22;6591;51.446;5.404;2023-03-01T11:39:12;9.70;79.40
13049;DHT22;6591;51.446;5.404;2023-03-01T11:41:45;9.80;79.10
13049;DHT22;6591;51.446;5.404;2023-03-01T11:44:26;9.90;79.30
13049;DHT22;6591;51.446;5.404;2023-03-01T11:50:17;10.00;76.10
13049;DHT22;6591;51.446;5.404;2023-03-01T11:53:05;10.00;74.40
13049;DHT22;6591;51.446;5.404;2023-03-01T11:56:04;10.00;77.60
13049;DHT22;6591;51.446;5.404;2023-03-01T12:04:54;10.30;72.00
13049;DHT22;6591;51.446;5.404;2023-03-01T12:08:18;10.30;74.20
13049;DHT22;6591;51.446;5.404;2023-03-01T12:35:32;9.60;69.80
13049;DHT22;6591;51.446;5.404;2023-03-01T12:49:46;10.00;70.90
13049;DHT22;6591;51.446;5.404;2023-03-01T12:52:47;10.10;71.90
13049;DHT22;6591;51.446;5.404;2023-03-01T12:55:39;10.10;73.60
13049;DHT22;6591;51.446;5.404;2023-03-01T13:01:31;10.30;71.40
13049;DHT22;6591;51.446;5.404;2023-03-01T13:06:55;10.40;70.50
13049;DHT22;6591;51.446;5.404;2023-03-01T13:09:55;10.30;69.50
13049;DHT22;6591;51.446;5.404;2023-03-01T13:15:35;10.30;69.70
13049;DHT22;6591;51.446;5.404;2023-03-01T13:23:23;10.20;71.00
13049;DHT22;6591;51.446;5.404;2023-03-01T13:33:44;10.00;70.00
13049;DHT22;6591;51.446;5.404;2023-03-01T13:38:59;10.20;70.60
13049;DHT22;6591;51.446;5.404;2023-03-01T13:44:33;10.30;67.70
13049;DHT22;6591;51.446;5.404;2023-03-01T13:49:48;10.30;70.00
13049;DHT22;6591;51.446;5.404;2023-03-01T13:52:44;10.40;69.50
13049;DHT22;6591;51.446;5.404;2023-03-01T13:55:38;10.40;66.50
13049;DHT22;6591;51.446;5.404;2023-03-01T13:58:21;10.60;67.30
13049;DHT22;6591;51.446;5.404;2023-03-01T14:03:31;10.30;67.40
13049;DHT22;6591;51.446;5.404;2023-03-01T14:06:07;10.20;66.90
13049;DHT22;6591;51.446;5.404;2023-03-01T14:09:27;10.10;67.90
13049;DHT22;6591;51.446;5.404;2023-03-01T14:15:10;10.10;68.60
13049;DHT22;6591;51.446;5.404;2023-03-01T14:17:52;10.10;67.80
13049;DHT22;6591;51.446;5.404;2023-03-01T14:20:45;10.20;67.80
13049;DHT22;6591;51.446;5.404;2023-03-01T14:23:21;12.00;70.00
13049;DHT22;6591;51.446;5.404;2023-03-01T14:25:52;10.40;65.90
13049;DHT22;6591;51.446;5.404;2023-03-01T14:28:27;10.40;68.60
13049;DHT22;6591;51.446;5.404;2023-03-01T14:30:57;10.40;68.40
13049;DHT22;6591;51.446;5.404;2023-03-01T14:33:34;11.20;69.20
13049;DHT22;6591;51.446;5.404;2023-03-01T14:36:12;10.50;68.60
13049;DHT22;6591;51.446;5.404;2023-03-01T14:38:42;10.50;68.40
13049;DHT22;6591;51.446;5.404;2023-03-01T14:41:21;10.50;66.20
13049;DHT22;6591;51.446;5.404;2023-03-01T14:43:56;10.50;65.00
13049;DHT22;6591;51.446;5.404;2023-03-01T14:46:33;10.50;66.60
13049;DHT22;6591;51.446;5.404;2023-03-01T14:49:17;10.50;66.70
13049;DHT22;6591;51.446;5.404;2023-03-01T14:52:00;10.50;66.20
13049;DHT22;6591;51.446;5.404;2023-03-01T14:54:38;10.60;66.90
13049;DHT22;6591;51.446;5.404;2023-03-01T14:57:17;10.60;66.60
13049;DHT22;6591;51.446;5.404;2023-03-01T14:59:52;10.60;66.10
13049;DHT22;6591;51.446;5.404;2023-03-01T15:02:33;10.70;67.40
13049;DHT22;6591;51.446;5.404;2023-03-01T15:05:03;10.70;67.60
13049;DHT22;6591;51.446;5.404;2023-03-01T15:07:40;10.70;67.30
13049;DHT22;6591;51.446;5.404;2023-03-01T15:10:24;10.80;66.00
13049;DHT22;6591;51.446;5.404;2023-03-01T15:12:54;10.90;67.10
13049;DHT22;6591;51.446;5.404;2023-03-01T15:17:58;11.00;67.30
13049;DHT22;6591;51.446;5.404;2023-03-01T15:20:28;11.00;66.70
13049;DHT22;6591;51.446;5.404;2023-03-01T15:23:02;11.00;66.20
13049;DHT22;6591;51.446;5.404;2023-03-01T15:25:32;11.10;66.30
13049;DHT22;6591;51.446;5.404;2023-03-01T15:28:02;11.10;65.40
13049;DHT22;6591;51.446;5.404;2023-03-01T15:30:33;11.00;64.60
13049;DHT22;6591;51.446;5.404;2023-03-01T15:33:36;11.10;64.90
13049;DHT22;6591;51.446;5.404;2023-03-01T15:39:00;11.00;64.60
13049;DHT22;6591;51.446;5.404;2023-03-01T15:41:30;11.60;66.60
13049;DHT22;6591;51.446;5.404;2023-03-01T15:44:26;11.00;65.90
13049;DHT22;6591;51.446;5.404;2023-03-01T15:47:40;11.00;65.80
13049;DHT22;6591;51.446;5.404;2023-03-01T15:50:34;11.10;66.30
13049;DHT22;6591;51.446;5.404;2023-03-01T15:53:13;12.30;66.40
13049;DHT22;6591;51.446;5.404;2023-03-01T15:55:41;11.20;66.60
13049;DHT22;6591;51.446;5.404;2023-03-01T15:58:13;11.20;67.30
13049;DHT22;6591;51.446;5.404;2023-03-01T16:00:51;11.20;67.10
13049;DHT22;6591;51.446;5.404;2023-03-01T16:03:28;11.20;66.90
13049;DHT22;6591;51.446;5.404;2023-03-01T16:05:55;11.30;67.20
13049;DHT22;6591;51.446;5.404;2023-03-01T16:08:23;11.30;67.40
13049;DHT22;6591;51.446;5.404;2023-03-01T16:10:50;11.30;67.60
13049;DHT22;6591;51.446;5.404;2023-03-01T16:13:18;11.40;67.10
13049;DHT22;6591;51.446;5.404;2023-03-01T16:15:46;12.20;67.80
13049;DHT22;6591;51.446;5.404;2023-03-01T16:18:13;11.40;66.30
13049;DHT22;6591;51.446;5.404;2023-03-01T16:20:40;11.40;66.70
13049;DHT22;6591;51.446;5.404;2023-03-01T16:23:10;11.40;66.20
13049;DHT22;6591;51.446;5.404;2023-03-01T16:25:38;11.70;66.90
13049;DHT22;6591;51.446;5.404;2023-03-01T16:28:06;11.30;66.10
13049;DHT22;6591;51.446;5.404;2023-03-01T16:30:40;11.20;66.00
13049;DHT22;6591;51.446;5.404;2023-03-01T16:33:07;11.30;65.10
13049;DHT22;6591;51.446;5.404;2023-03-01T16:35:55;11.40;66.10
13049;DHT22;6591;51.446;5.404;2023-03-01T16:38:22;11.00;66.10
13049;DHT22;6591;51.446;5.404;2023-03-01T16:40:51;10.90;65.70
13049;DHT22;6591;51.446;5.404;2023-03-01T16:43:18;10.90;66.40
13049;DHT22;6591;51.446;5.404;2023-03-01T16:45:45;10.80;66.10
13049;DHT22;6591;51.446;5.404;2023-03-01T16:48:13;10.70;66.40
13049;DHT22;6591;51.446;5.404;2023-03-01T16:50:41;10.80;66.20
13049;DHT22;6591;51.446;5.404;2023-03-01T16:53:08;10.50;66.50
13049;DHT22;6591;51.446;5.404;2023-03-01T16:55:36;10.90;67.00
13049;DHT22;6591;51.446;5.404;2023-03-01T16:58:04;11.60;67.30
13049;DHT22;6591;51.446;5.404;2023-03-01T17:00:32;10.20;66.80
13049;DHT22;6591;51.446;5.404;2023-03-01T17:03:01;10.10;66.30
13049;DHT22;6591;51.446;5.404;2023-03-01T17:05:29;10.00;66.60
13049;DHT22;6591;51.446;5.404;2023-03-01T17:07:56;9.80;66.80
13049;DHT22;6591;51.446;5.404;2023-03-01T17:10:24;10.30;67.20
13049;DHT22;6591;51.446;5.404;2023-03-01T17:12:52;9.50;67.40
13049;DHT22;6591;51.446;5.404;2023-03-01T17:15:20;10.40;68.00
13049;DHT22;6591;51.446;5.404;2023-03-01T17:17:47;9.10;67.50
13049;DHT22;6591;51.446;5.404;2023-03-01T17:20:17;9.00;68.00
13049;DHT22;6591;51.446;5.404;2023-03-01T17:22:45;8.70;68.20
13049;DHT22;6591;51.446;5.404;2023-03-01T17:25:12;8.50;68.40
13049;DHT22;6591;51.446;5.404;2023-03-01T17:27:40;8.40;69.00
13049;DHT22;6591;51.446;5.404;2023-03-01T17:30:09;8.20;70.20
13049;DHT22;6591;51.446;5.404;2023-03-01T17:32:38;8.00;69.70
13049;DHT22;6591;51.446;5.404;2023-03-01T17:35:06;7.80;70.10
13049;DHT22;6591;51.446;5.404;2023-03-01T17:37:34;7.70;70.40
13049;DHT22;6591;51.446;5.404;2023-03-01T17:40:05;7.60;70.60
13049;DHT22;6591;51.446;5.404;2023-03-01T17:42:33;7.40;71.00
13049;DHT22;6591;51.446;5.404;2023-03-01T17:45:01;7.30;71.20
13049;DHT22;6591;51.446;5.404;2023-03-01T17:47:28;7.20;71.40
13049;DHT22;6591;51.446;5.404;2023-03-01T17:49:55;7.10;72.00
13049;DHT22;6591;51.446;5.404;2023-03-01T17:52:22;7.00;72.40
13049;DHT22;6591;51.446;5.404;2023-03-01T17:54:50;6.90;72.50
13049;DHT22;6591;51.446;5.404;2023-03-01T17:57:18;8.70;73.70
13049;DHT22;6591;51.446;5.404;2023-03-01T17:59:45;8.60;73.70
13049;DHT22;6591;51.446;5.404;2023-03-01T18:02:12;6.70;72.60
13049;DHT22;6591;51.446;5.404;2023-03-01T18:04:39;6.60;73.00
13049;DHT22;6591;51.446;5.404;2023-03-01T18:07:07;6.50;73.20
13049;DHT22;6591;51.446;5.404;2023-03-01T18:09:34;6.40;74.20
13049;DHT22;6591;51.446;5.404;2023-03-01T18:12:03;6.30;73.40
13049;DHT22;6591;51.446;5.404;2023-03-01T18:14:32;6.30;73.70
13049;DHT22;6591;51.446;5.404;2023-03-01T18:17:03;6.20;74.10
13049;DHT22;6591;51.446;5.404;2023-03-01T18:19:39;7.40;74.80
13049;DHT22;6591;51.446;5.404;2023-03-01T18:22:07;6.00;74.60
13049;DHT22;6591;51.446;5.404;2023-03-01T18:24:36;6.10;74.70
13049;DHT22;6591;51.446;5.404;2023-03-01T18:27:04;5.90;74.60